Athol, South Dakota
Current Conditions -  °F | °C
As of 12:53 AM on Saturday 25 Oct 2014 (Local Time) from KABR Reporting Station
Clear Clear  
Wind Chill: 57°   Ceiling: Unl
Heat Index: 57°   Visibility: 10mi
Dew Point: 37°   Wind: 10mph
Humidity: 47%   Direction: 320°NW
Pressure: 30.05"   Gusts: NA
Location:  45.027°N, 98.472°W
Report Text: KABR 250553Z AUTO 32009KT 10SM CLR 14/03 A3005 RMK AO2 SLP172 T01390028 10200 20139 402670006 51019
Loading
Personal Weather Stations






























Interactive Weather Map New forecast layout! Learn more

10-Day Weather Forecast

Advertisements
Track Severe Weather on mobile